N585RS KOWB-KMEM
Flight info
| Callsign | N585RS |
|---|---|
| Flight time | 1h 16m |
| Altitude | VFR/045 |
| Route | |
| Aircraft | BE58/L-VGD/C |
Departure
| Time | 2026-05-04 00:40 |
|---|---|
| Airport | Owensboro Daviess County Airport (KOWB) |
Arrival
| Time | 2026-05-04 01:56 |
|---|---|
| Airport | Memphis International Airport (KMEM) |
| Time | Latitude | Longitude | Altitude | Speed | Heading |
|---|---|---|---|---|---|
| 2026-05-04 00:33 | 37.73731 | -87.16420 | 401 ft | 0 kts | 265° |
| 2026-05-04 00:34 | 37.73731 | -87.16421 | 401 ft | 2 kts | 268° |
| 2026-05-04 00:34 | 37.73773 | -87.16458 | 401 ft | 14 kts | 314° |
| 2026-05-04 00:34 | 37.73837 | -87.16544 | 403 ft | 15 kts | 357° |
| 2026-05-04 00:35 | 37.73970 | -87.16551 | 407 ft | 17 kts | 360° |
| 2026-05-04 00:35 | 37.73995 | -87.16552 | 407 ft | 0 kts | 357° |
| 2026-05-04 00:35 | 37.74024 | -87.16553 | 408 ft | 11 kts | 357° |
| 2026-05-04 00:35 | 37.74149 | -87.16560 | 409 ft | 24 kts | 358° |
| 2026-05-04 00:36 | 37.74291 | -87.16538 | 411 ft | 24 kts | 24° |
| 2026-05-04 00:36 | 37.74455 | -87.16506 | 411 ft | 24 kts | 359° |
| 2026-05-04 00:36 | 37.74625 | -87.16515 | 409 ft | 27 kts | 358° |
| 2026-05-04 00:36 | 37.74776 | -87.16520 | 408 ft | 19 kts | 359° |
| 2026-05-04 00:37 | 37.74885 | -87.16548 | 407 ft | 11 kts | 298° |
| 2026-05-04 00:37 | 37.74891 | -87.16591 | 407 ft | 0 kts | 240° |
| 2026-05-04 00:38 | 37.74885 | -87.16624 | 407 ft | 10 kts | 266° |
| 2026-05-04 00:38 | 37.74883 | -87.16677 | 408 ft | 0 kts | 265° |
| 2026-05-04 00:39 | 37.74883 | -87.16679 | 408 ft | 3 kts | 265° |
| 2026-05-04 00:39 | 37.74852 | -87.16765 | 408 ft | 20 kts | 206° |
| 2026-05-04 00:39 | 37.74490 | -87.16759 | 413 ft | 90 kts | 179° |
| 2026-05-04 00:39 | 37.73739 | -87.16716 | 613 ft | 117 kts | 181° |
| 2026-05-04 00:40 | 37.72886 | -87.16680 | 911 ft | 128 kts | 180° |
| 2026-05-04 00:40 | 37.71969 | -87.16639 | 1233 ft | 140 kts | 180° |
| 2026-05-04 00:40 | 37.70956 | -87.16595 | 1503 ft | 149 kts | 195° |
| 2026-05-04 00:40 | 37.70139 | -87.17379 | 1768 ft | 154 kts | 235° |
| 2026-05-04 00:41 | 37.69919 | -87.18695 | 2149 ft | 155 kts | 263° |
| 2026-05-04 00:41 | 37.69933 | -87.20035 | 2536 ft | 151 kts | 264° |
| 2026-05-04 00:41 | 37.69953 | -87.21339 | 2913 ft | 147 kts | 263° |
| 2026-05-04 00:41 | 37.69974 | -87.22609 | 3290 ft | 143 kts | 264° |
| 2026-05-04 00:42 | 37.69994 | -87.23845 | 3660 ft | 139 kts | 265° |
| 2026-05-04 00:42 | 37.70010 | -87.25042 | 4036 ft | 134 kts | 266° |
| 2026-05-04 00:42 | 37.70023 | -87.26201 | 4414 ft | 131 kts | 267° |
| 2026-05-04 00:42 | 37.70034 | -87.27426 | 4463 ft | 147 kts | 268° |
| 2026-05-04 00:43 | 37.70048 | -87.28758 | 4481 ft | 156 kts | 268° |
| 2026-05-04 00:43 | 37.69854 | -87.30101 | 4493 ft | 162 kts | 248° |
| 2026-05-04 00:43 | 37.69306 | -87.31390 | 4493 ft | 167 kts | 241° |
| 2026-05-04 00:43 | 37.68707 | -87.32635 | 4493 ft | 169 kts | 241° |
| 2026-05-04 00:44 | 37.68104 | -87.33917 | 4493 ft | 171 kts | 242° |
| 2026-05-04 00:44 | 37.67506 | -87.35224 | 4495 ft | 173 kts | 243° |
| 2026-05-04 00:44 | 37.66915 | -87.36547 | 4496 ft | 174 kts | 243° |
| 2026-05-04 00:44 | 37.66326 | -87.37878 | 4492 ft | 173 kts | 243° |
| 2026-05-04 00:45 | 37.65739 | -87.39208 | 4490 ft | 173 kts | 243° |
| 2026-05-04 00:45 | 37.65154 | -87.40538 | 4492 ft | 174 kts | 243° |
| 2026-05-04 00:45 | 37.64570 | -87.41868 | 4488 ft | 173 kts | 243° |
| 2026-05-04 00:45 | 37.63986 | -87.43198 | 4496 ft | 173 kts | 243° |
| 2026-05-04 00:46 | 37.63402 | -87.44526 | 4497 ft | 173 kts | 243° |
| 2026-05-04 00:46 | 37.62817 | -87.45855 | 4494 ft | 173 kts | 243° |
| 2026-05-04 00:46 | 37.62235 | -87.47178 | 4492 ft | 172 kts | 243° |
| 2026-05-04 00:46 | 37.61651 | -87.48502 | 4496 ft | 173 kts | 243° |
| 2026-05-04 00:47 | 37.61068 | -87.49827 | 4495 ft | 173 kts | 243° |
| 2026-05-04 00:47 | 37.60483 | -87.51148 | 4492 ft | 172 kts | 242° |
| 2026-05-04 00:47 | 37.59898 | -87.52467 | 4495 ft | 172 kts | 243° |
| 2026-05-04 00:47 | 37.59321 | -87.53794 | 4497 ft | 173 kts | 243° |
| 2026-05-04 00:48 | 37.58738 | -87.55118 | 4496 ft | 173 kts | 243° |
| 2026-05-04 00:48 | 37.58155 | -87.56435 | 4497 ft | 172 kts | 243° |
| 2026-05-04 00:48 | 37.57570 | -87.57757 | 4504 ft | 173 kts | 243° |
| 2026-05-04 00:48 | 37.56986 | -87.59078 | 4501 ft | 173 kts | 244° |
| 2026-05-04 00:49 | 37.56401 | -87.60403 | 4491 ft | 173 kts | 243° |
| 2026-05-04 00:49 | 37.55817 | -87.61726 | 4493 ft | 173 kts | 243° |
| 2026-05-04 00:49 | 37.55233 | -87.63048 | 4500 ft | 173 kts | 243° |
| 2026-05-04 00:49 | 37.54647 | -87.64372 | 4493 ft | 173 kts | 243° |
| 2026-05-04 00:50 | 37.53983 | -87.65637 | 4489 ft | 175 kts | 233° |
| 2026-05-04 00:50 | 37.53051 | -87.66637 | 4496 ft | 176 kts | 224° |
| 2026-05-04 00:50 | 37.52134 | -87.67656 | 4499 ft | 176 kts | 228° |
| 2026-05-04 00:50 | 37.51238 | -87.68705 | 4493 ft | 176 kts | 227° |
| 2026-05-04 00:51 | 37.50336 | -87.69746 | 4488 ft | 176 kts | 227° |
| 2026-05-04 00:51 | 37.49428 | -87.70780 | 4495 ft | 176 kts | 227° |
| 2026-05-04 00:51 | 37.48514 | -87.71810 | 4499 ft | 177 kts | 227° |
| 2026-05-04 00:51 | 37.47597 | -87.72842 | 4495 ft | 177 kts | 227° |
| 2026-05-04 00:52 | 37.46679 | -87.73876 | 4493 ft | 177 kts | 227° |
| 2026-05-04 00:52 | 37.45758 | -87.74910 | 4496 ft | 178 kts | 227° |
| 2026-05-04 00:52 | 37.44836 | -87.75945 | 4483 ft | 178 kts | 227° |
| 2026-05-04 00:52 | 37.43913 | -87.76979 | 4486 ft | 177 kts | 227° |
| 2026-05-04 00:53 | 37.43020 | -87.77968 | 4754 ft | 165 kts | 228° |
| 2026-05-04 00:53 | 37.42181 | -87.78879 | 5043 ft | 155 kts | 228° |
| 2026-05-04 00:53 | 37.41389 | -87.79752 | 5345 ft | 148 kts | 229° |
| 2026-05-04 00:53 | 37.40639 | -87.80588 | 5638 ft | 144 kts | 230° |
| 2026-05-04 00:54 | 37.39901 | -87.81413 | 5928 ft | 140 kts | 230° |
| 2026-05-04 00:54 | 37.39182 | -87.82213 | 6221 ft | 136 kts | 230° |
| 2026-05-04 00:54 | 37.38480 | -87.83001 | 6438 ft | 139 kts | 230° |
| 2026-05-04 00:54 | 37.37731 | -87.83856 | 6461 ft | 151 kts | 230° |
| 2026-05-04 00:55 | 37.36934 | -87.84764 | 6482 ft | 158 kts | 230° |
| 2026-05-04 00:55 | 37.36099 | -87.85705 | 6496 ft | 164 kts | 230° |
| 2026-05-04 00:55 | 37.35235 | -87.86672 | 6492 ft | 168 kts | 229° |
| 2026-05-04 00:55 | 37.34354 | -87.87653 | 6485 ft | 170 kts | 229° |
| 2026-05-04 00:56 | 37.33467 | -87.88640 | 6485 ft | 171 kts | 229° |
| 2026-05-04 00:56 | 37.32574 | -87.89630 | 6476 ft | 172 kts | 229° |
| 2026-05-04 00:56 | 37.31678 | -87.90627 | 6492 ft | 172 kts | 229° |
| 2026-05-04 00:56 | 37.30775 | -87.91629 | 6496 ft | 173 kts | 229° |
| 2026-05-04 00:57 | 37.29872 | -87.92630 | 6477 ft | 173 kts | 229° |
| 2026-05-04 00:57 | 37.29264 | -87.93305 | 6487 ft | 172 kts | 229° |
| 2026-05-04 00:57 | 37.28365 | -87.94303 | 6490 ft | 173 kts | 229° |
| 2026-05-04 00:57 | 37.27467 | -87.95301 | 6482 ft | 172 kts | 229° |
| 2026-05-04 00:58 | 37.26572 | -87.96294 | 6494 ft | 172 kts | 229° |
| 2026-05-04 00:58 | 37.25675 | -87.97290 | 6499 ft | 172 kts | 229° |
| 2026-05-04 00:58 | 37.24779 | -87.98289 | 6502 ft | 173 kts | 229° |
| 2026-05-04 00:58 | 37.23879 | -87.99289 | 6504 ft | 173 kts | 229° |
| 2026-05-04 00:59 | 37.22975 | -88.00291 | 6501 ft | 174 kts | 229° |
| 2026-05-04 00:59 | 37.22070 | -88.01294 | 6497 ft | 173 kts | 229° |
| 2026-05-04 00:59 | 37.21171 | -88.02298 | 6497 ft | 173 kts | 228° |
| 2026-05-04 00:59 | 37.20270 | -88.03299 | 6499 ft | 173 kts | 227° |
| 2026-05-04 01:00 | 37.19366 | -88.04299 | 6497 ft | 173 kts | 228° |
| 2026-05-04 01:00 | 37.18465 | -88.05297 | 6500 ft | 173 kts | 227° |
| 2026-05-04 01:00 | 37.17564 | -88.06294 | 6501 ft | 173 kts | 227° |
| 2026-05-04 01:00 | 37.16675 | -88.07276 | 6500 ft | 173 kts | 228° |
| 2026-05-04 01:01 | 37.15775 | -88.08272 | 6501 ft | 173 kts | 227° |
| 2026-05-04 01:01 | 37.14875 | -88.09268 | 6499 ft | 173 kts | 227° |
| 2026-05-04 01:01 | 37.13973 | -88.10265 | 6501 ft | 173 kts | 228° |
| 2026-05-04 01:01 | 37.13056 | -88.11280 | 6498 ft | 174 kts | 228° |
| 2026-05-04 01:02 | 37.12132 | -88.12286 | 6292 ft | 181 kts | 225° |
| 2026-05-04 01:02 | 37.11031 | -88.13050 | 6164 ft | 180 kts | 212° |
| 2026-05-04 01:02 | 37.09976 | -88.13846 | 5939 ft | 173 kts | 224° |
| 2026-05-04 01:02 | 37.09104 | -88.14884 | 5757 ft | 177 kts | 234° |
| 2026-05-04 01:03 | 37.08415 | -88.16084 | 5756 ft | 173 kts | 242° |
| 2026-05-04 01:03 | 37.07970 | -88.17468 | 5565 ft | 170 kts | 266° |
| 2026-05-04 01:03 | 37.07724 | -88.18884 | 5600 ft | 163 kts | 251° |
| 2026-05-04 01:03 | 37.07317 | -88.20251 | 5360 ft | 169 kts | 257° |
| 2026-05-04 01:04 | 37.06975 | -88.21629 | 5301 ft | 166 kts | 253° |
| 2026-05-04 01:04 | 37.06449 | -88.23011 | 4854 ft | 183 kts | 242° |
| 2026-05-04 01:04 | 37.05790 | -88.24312 | 4586 ft | 180 kts | 245° |
| 2026-05-04 01:04 | 37.05086 | -88.25551 | 4674 ft | 164 kts | 232° |
| 2026-05-04 01:05 | 37.04288 | -88.26569 | 4578 ft | 166 kts | 231° |
| 2026-05-04 01:05 | 37.03530 | -88.27681 | 4538 ft | 172 kts | 231° |
| 2026-05-04 01:05 | 37.02500 | -88.28519 | 4528 ft | 180 kts | 215° |
| 2026-05-04 01:05 | 37.01385 | -88.29254 | 4519 ft | 182 kts | 214° |
| 2026-05-04 01:06 | 37.00246 | -88.29964 | 4518 ft | 184 kts | 212° |
| 2026-05-04 01:06 | 36.99055 | -88.30576 | 4536 ft | 184 kts | 210° |
| 2026-05-04 01:06 | 36.97898 | -88.31252 | 4532 ft | 184 kts | 211° |
| 2026-05-04 01:06 | 36.96650 | -88.31745 | 4471 ft | 193 kts | 195° |
| 2026-05-04 01:07 | 36.95308 | -88.31805 | 4534 ft | 194 kts | 186° |
| 2026-05-04 01:07 | 36.94003 | -88.32007 | 4549 ft | 187 kts | 204° |
| 2026-05-04 01:07 | 36.92890 | -88.32788 | 4537 ft | 182 kts | 223° |
| 2026-05-04 01:07 | 36.91959 | -88.33853 | 4526 ft | 181 kts | 230° |
| 2026-05-04 01:08 | 36.91089 | -88.34986 | 4527 ft | 180 kts | 231° |
| 2026-05-04 01:08 | 36.90220 | -88.36113 | 4527 ft | 180 kts | 230° |
| 2026-05-04 01:08 | 36.89329 | -88.37222 | 4530 ft | 181 kts | 229° |
| 2026-05-04 01:08 | 36.88419 | -88.38306 | 4522 ft | 181 kts | 227° |
| 2026-05-04 01:09 | 36.87495 | -88.39369 | 4520 ft | 180 kts | 226° |
| 2026-05-04 01:09 | 36.86561 | -88.40418 | 4526 ft | 181 kts | 227° |
| 2026-05-04 01:09 | 36.85623 | -88.41460 | 4555 ft | 178 kts | 226° |
| 2026-05-04 01:09 | 36.85469 | -88.42384 | 5016 ft | 144 kts | 270° |
| 2026-05-04 01:10 | 36.84942 | -88.43532 | 4863 ft | 171 kts | 231° |
| 2026-05-04 01:10 | 36.84073 | -88.44598 | 4787 ft | 180 kts | 228° |
| 2026-05-04 01:10 | 36.83214 | -88.45012 | 5465 ft | 135 kts | 187° |
| 2026-05-04 01:10 | 36.82321 | -88.45744 | 4619 ft | 180 kts | 243° |
| 2026-05-04 01:11 | 36.81532 | -88.46941 | 4820 ft | 148 kts | 230° |
| 2026-05-04 01:11 | 36.81132 | -88.46529 | 5672 ft | 131 kts | 169° |
| 2026-05-04 01:11 | 36.80412 | -88.47255 | 5063 ft | 164 kts | 253° |
| 2026-05-04 01:11 | 36.79891 | -88.48602 | 4782 ft | 185 kts | 237° |
| 2026-05-04 01:12 | 36.78931 | -88.49730 | 4643 ft | 193 kts | 223° |
| 2026-05-04 01:12 | 36.77840 | -88.50700 | 4581 ft | 192 kts | 220° |
| 2026-05-04 01:12 | 36.76747 | -88.51646 | 4553 ft | 190 kts | 220° |
| 2026-05-04 01:12 | 36.75685 | -88.52615 | 4541 ft | 188 kts | 222° |
| 2026-05-04 01:13 | 36.74657 | -88.53610 | 4530 ft | 186 kts | 224° |
| 2026-05-04 01:13 | 36.73655 | -88.54625 | 4528 ft | 185 kts | 224° |
| 2026-05-04 01:13 | 36.72668 | -88.55656 | 4524 ft | 185 kts | 225° |
| 2026-05-04 01:13 | 36.71692 | -88.56697 | 4523 ft | 184 kts | 225° |
| 2026-05-04 01:14 | 36.70723 | -88.57741 | 4522 ft | 184 kts | 225° |
| 2026-05-04 01:14 | 36.69760 | -88.58786 | 4524 ft | 184 kts | 225° |
| 2026-05-04 01:14 | 36.68795 | -88.59835 | 4522 ft | 184 kts | 225° |
| 2026-05-04 01:14 | 36.67830 | -88.60885 | 4518 ft | 184 kts | 225° |
| 2026-05-04 01:15 | 36.66869 | -88.61931 | 4517 ft | 183 kts | 225° |
| 2026-05-04 01:15 | 36.65908 | -88.62976 | 4516 ft | 184 kts | 225° |
| 2026-05-04 01:15 | 36.64945 | -88.64023 | 4514 ft | 184 kts | 225° |
| 2026-05-04 01:15 | 36.63981 | -88.65070 | 4519 ft | 184 kts | 225° |
| 2026-05-04 01:16 | 36.63019 | -88.66115 | 4521 ft | 184 kts | 225° |
| 2026-05-04 01:16 | 36.62057 | -88.67160 | 4518 ft | 184 kts | 225° |
| 2026-05-04 01:16 | 36.61094 | -88.68205 | 4515 ft | 184 kts | 226° |
| 2026-05-04 01:16 | 36.60131 | -88.69251 | 4512 ft | 183 kts | 226° |
| 2026-05-04 01:17 | 36.59169 | -88.70293 | 4518 ft | 183 kts | 225° |
| 2026-05-04 01:17 | 36.58206 | -88.71336 | 4518 ft | 184 kts | 225° |
| 2026-05-04 01:17 | 36.57151 | -88.72253 | 4519 ft | 186 kts | 218° |
| 2026-05-04 01:17 | 36.56073 | -88.73139 | 4514 ft | 186 kts | 219° |
| 2026-05-04 01:18 | 36.55003 | -88.74043 | 4509 ft | 186 kts | 219° |
| 2026-05-04 01:18 | 36.53936 | -88.74951 | 4511 ft | 186 kts | 219° |
| 2026-05-04 01:18 | 36.52868 | -88.75857 | 4513 ft | 186 kts | 219° |
| 2026-05-04 01:18 | 36.51798 | -88.76761 | 4509 ft | 186 kts | 219° |
| 2026-05-04 01:19 | 36.50728 | -88.77663 | 4511 ft | 186 kts | 219° |
| 2026-05-04 01:19 | 36.49655 | -88.78565 | 4505 ft | 186 kts | 219° |
| 2026-05-04 01:19 | 36.48582 | -88.79465 | 4496 ft | 186 kts | 219° |
| 2026-05-04 01:19 | 36.47508 | -88.80365 | 4503 ft | 187 kts | 218° |
| 2026-05-04 01:20 | 36.46430 | -88.81268 | 4507 ft | 187 kts | 218° |
| 2026-05-04 01:20 | 36.45349 | -88.82172 | 4501 ft | 187 kts | 218° |
| 2026-05-04 01:20 | 36.44269 | -88.83076 | 4503 ft | 187 kts | 218° |
| 2026-05-04 01:20 | 36.43187 | -88.83980 | 4502 ft | 187 kts | 218° |
| 2026-05-04 01:21 | 36.42107 | -88.84884 | 4501 ft | 188 kts | 218° |
| 2026-05-04 01:21 | 36.41024 | -88.85789 | 4504 ft | 187 kts | 219° |
| 2026-05-04 01:21 | 36.39942 | -88.86692 | 4502 ft | 188 kts | 219° |
| 2026-05-04 01:21 | 36.38858 | -88.87597 | 4504 ft | 188 kts | 219° |
| 2026-05-04 01:22 | 36.37788 | -88.88491 | 4501 ft | 188 kts | 219° |
| 2026-05-04 01:22 | 36.36702 | -88.89398 | 4500 ft | 188 kts | 218° |
| 2026-05-04 01:22 | 36.35615 | -88.90304 | 4496 ft | 188 kts | 219° |
| 2026-05-04 01:22 | 36.34532 | -88.91207 | 4498 ft | 187 kts | 218° |
| 2026-05-04 01:23 | 36.33449 | -88.92109 | 4498 ft | 187 kts | 219° |
| 2026-05-04 01:23 | 36.32368 | -88.93011 | 4496 ft | 187 kts | 218° |
| 2026-05-04 01:23 | 36.31289 | -88.93910 | 4499 ft | 187 kts | 218° |
| 2026-05-04 01:23 | 36.30212 | -88.94806 | 4497 ft | 187 kts | 218° |
| 2026-05-04 01:24 | 36.29132 | -88.95705 | 4498 ft | 187 kts | 219° |
| 2026-05-04 01:24 | 36.28053 | -88.96601 | 4497 ft | 187 kts | 219° |
| 2026-05-04 01:24 | 36.26978 | -88.97504 | 4503 ft | 187 kts | 216° |
| 2026-05-04 01:24 | 36.25721 | -88.98001 | 4503 ft | 193 kts | 198° |
| 2026-05-04 01:25 | 36.24455 | -88.98500 | 4501 ft | 193 kts | 197° |
| 2026-05-04 01:25 | 36.23102 | -88.98616 | 4498 ft | 196 kts | 187° |
| 2026-05-04 01:25 | 36.21739 | -88.98655 | 4506 ft | 197 kts | 186° |
| 2026-05-04 01:25 | 36.20366 | -88.98677 | 4516 ft | 198 kts | 186° |
| 2026-05-04 01:26 | 36.18985 | -88.98701 | 4513 ft | 199 kts | 186° |
| 2026-05-04 01:26 | 36.17602 | -88.98725 | 4511 ft | 199 kts | 186° |
| 2026-05-04 01:26 | 36.16219 | -88.98756 | 4516 ft | 199 kts | 186° |
| 2026-05-04 01:26 | 36.14833 | -88.98796 | 4515 ft | 199 kts | 186° |
| 2026-05-04 01:27 | 36.13449 | -88.98845 | 4514 ft | 199 kts | 187° |
| 2026-05-04 01:27 | 36.12069 | -88.98898 | 4515 ft | 198 kts | 187° |
| 2026-05-04 01:27 | 36.10692 | -88.98956 | 4519 ft | 198 kts | 187° |
| 2026-05-04 01:27 | 36.09311 | -88.99020 | 4523 ft | 198 kts | 187° |
| 2026-05-04 01:28 | 36.07932 | -88.99089 | 4525 ft | 198 kts | 187° |
| 2026-05-04 01:28 | 36.06554 | -88.99163 | 4528 ft | 198 kts | 188° |
| 2026-05-04 01:28 | 36.05175 | -88.99242 | 4527 ft | 198 kts | 188° |
| 2026-05-04 01:28 | 36.03797 | -88.99324 | 4529 ft | 198 kts | 188° |
| 2026-05-04 01:29 | 36.02420 | -88.99412 | 4531 ft | 198 kts | 188° |
| 2026-05-04 01:29 | 36.01047 | -88.99504 | 4530 ft | 198 kts | 188° |
| 2026-05-04 01:29 | 35.99676 | -88.99601 | 4532 ft | 197 kts | 188° |
| 2026-05-04 01:29 | 35.98314 | -88.99741 | 4534 ft | 194 kts | 197° |
| 2026-05-04 01:30 | 35.97028 | -89.00200 | 4538 ft | 195 kts | 195° |
| 2026-05-04 01:30 | 35.95685 | -89.00456 | 4539 ft | 196 kts | 193° |
| 2026-05-04 01:30 | 35.94333 | -89.00676 | 4545 ft | 196 kts | 192° |
| 2026-05-04 01:30 | 35.92974 | -89.00884 | 4540 ft | 197 kts | 192° |
| 2026-05-04 01:31 | 35.91617 | -89.01095 | 4525 ft | 197 kts | 192° |
| 2026-05-04 01:31 | 35.90273 | -89.01311 | 4506 ft | 197 kts | 192° |
| 2026-05-04 01:31 | 35.88896 | -89.01542 | 4498 ft | 197 kts | 193° |
| 2026-05-04 01:31 | 35.87541 | -89.01777 | 4493 ft | 196 kts | 193° |
| 2026-05-04 01:32 | 35.86190 | -89.02022 | 4490 ft | 196 kts | 193° |
| 2026-05-04 01:32 | 35.84842 | -89.02278 | 4498 ft | 196 kts | 194° |
| 2026-05-04 01:32 | 35.83494 | -89.02545 | 4501 ft | 196 kts | 194° |
| 2026-05-04 01:32 | 35.82153 | -89.02825 | 4498 ft | 196 kts | 195° |
| 2026-05-04 01:33 | 35.80825 | -89.03170 | 4498 ft | 192 kts | 206° |
| 2026-05-04 01:33 | 35.79699 | -89.03969 | 4502 ft | 189 kts | 217° |
| 2026-05-04 01:33 | 35.78607 | -89.04865 | 4497 ft | 188 kts | 219° |
| 2026-05-04 01:33 | 35.77530 | -89.05788 | 4500 ft | 188 kts | 219° |
| 2026-05-04 01:34 | 35.76464 | -89.06719 | 4493 ft | 188 kts | 220° |
| 2026-05-04 01:34 | 35.75398 | -89.07656 | 4495 ft | 188 kts | 220° |
| 2026-05-04 01:34 | 35.74333 | -89.08596 | 4488 ft | 189 kts | 219° |
| 2026-05-04 01:34 | 35.73266 | -89.09538 | 4491 ft | 189 kts | 220° |
| 2026-05-04 01:35 | 35.72197 | -89.10478 | 4496 ft | 189 kts | 220° |
| 2026-05-04 01:35 | 35.71128 | -89.11420 | 4497 ft | 189 kts | 220° |
| 2026-05-04 01:35 | 35.70061 | -89.12364 | 4497 ft | 189 kts | 220° |
| 2026-05-04 01:35 | 35.68991 | -89.13308 | 4495 ft | 189 kts | 220° |
| 2026-05-04 01:36 | 35.67922 | -89.14252 | 4497 ft | 189 kts | 220° |
| 2026-05-04 01:36 | 35.66852 | -89.15198 | 4495 ft | 189 kts | 220° |
| 2026-05-04 01:36 | 35.65783 | -89.16142 | 4498 ft | 189 kts | 220° |
| 2026-05-04 01:36 | 35.64714 | -89.17087 | 4501 ft | 189 kts | 220° |
| 2026-05-04 01:37 | 35.63645 | -89.18038 | 4499 ft | 190 kts | 220° |
| 2026-05-04 01:37 | 35.62578 | -89.18987 | 4497 ft | 190 kts | 220° |
| 2026-05-04 01:37 | 35.61510 | -89.19938 | 4497 ft | 189 kts | 220° |
| 2026-05-04 01:37 | 35.60440 | -89.20884 | 4496 ft | 189 kts | 219° |
| 2026-05-04 01:38 | 35.59374 | -89.21832 | 4503 ft | 189 kts | 220° |
| 2026-05-04 01:38 | 35.58304 | -89.22778 | 4498 ft | 189 kts | 220° |
| 2026-05-04 01:38 | 35.57237 | -89.23723 | 4500 ft | 189 kts | 220° |
| 2026-05-04 01:38 | 35.56172 | -89.24661 | 4501 ft | 188 kts | 219° |
| 2026-05-04 01:39 | 35.55085 | -89.25566 | 4498 ft | 189 kts | 218° |
| 2026-05-04 01:39 | 35.53985 | -89.26441 | 4496 ft | 188 kts | 217° |
| 2026-05-04 01:39 | 35.52885 | -89.27308 | 4499 ft | 188 kts | 217° |
| 2026-05-04 01:39 | 35.51785 | -89.28174 | 4497 ft | 188 kts | 217° |
| 2026-05-04 01:40 | 35.50716 | -89.29080 | 4496 ft | 186 kts | 220° |
| 2026-05-04 01:40 | 35.49701 | -89.30064 | 4492 ft | 186 kts | 224° |
| 2026-05-04 01:40 | 35.48745 | -89.31097 | 4495 ft | 185 kts | 226° |
| 2026-05-04 01:40 | 35.47791 | -89.32161 | 4496 ft | 186 kts | 227° |
| 2026-05-04 01:41 | 35.46854 | -89.33247 | 4497 ft | 185 kts | 228° |
| 2026-05-04 01:41 | 35.45935 | -89.34355 | 4498 ft | 185 kts | 229° |
| 2026-05-04 01:41 | 35.45021 | -89.35472 | 4497 ft | 185 kts | 229° |
| 2026-05-04 01:41 | 35.44110 | -89.36592 | 4501 ft | 186 kts | 229° |
| 2026-05-04 01:42 | 35.43200 | -89.37717 | 4500 ft | 186 kts | 229° |
| 2026-05-04 01:42 | 35.42290 | -89.38846 | 4500 ft | 186 kts | 229° |
| 2026-05-04 01:42 | 35.41389 | -89.39985 | 4500 ft | 186 kts | 232° |
| 2026-05-04 01:42 | 35.40546 | -89.41180 | 4504 ft | 185 kts | 233° |
| 2026-05-04 01:43 | 35.39709 | -89.42379 | 4507 ft | 185 kts | 233° |
| 2026-05-04 01:43 | 35.38903 | -89.43604 | 4497 ft | 185 kts | 235° |
| 2026-05-04 01:43 | 35.38099 | -89.44840 | 4491 ft | 186 kts | 235° |
| 2026-05-04 01:43 | 35.37297 | -89.46075 | 4490 ft | 185 kts | 235° |
| 2026-05-04 01:44 | 35.36768 | -89.46892 | 4495 ft | 185 kts | 235° |
| 2026-05-04 01:44 | 35.35971 | -89.48128 | 4491 ft | 185 kts | 235° |
| 2026-05-04 01:44 | 35.35178 | -89.49367 | 4497 ft | 185 kts | 235° |
| 2026-05-04 01:44 | 35.34386 | -89.50605 | 4493 ft | 185 kts | 235° |
| 2026-05-04 01:45 | 35.33594 | -89.51844 | 4493 ft | 184 kts | 235° |
| 2026-05-04 01:45 | 35.32804 | -89.53083 | 4496 ft | 185 kts | 236° |
| 2026-05-04 01:45 | 35.31220 | -89.55557 | 4491 ft | 184 kts | 235° |
| 2026-05-04 01:46 | 35.30431 | -89.56792 | 4495 ft | 184 kts | 235° |
| 2026-05-04 01:46 | 35.29641 | -89.58029 | 4490 ft | 184 kts | 235° |
| 2026-05-04 01:46 | 35.28853 | -89.59262 | 4495 ft | 184 kts | 236° |
| 2026-05-04 01:46 | 35.28067 | -89.60496 | 4497 ft | 184 kts | 235° |
| 2026-05-04 01:47 | 35.27281 | -89.61735 | 4498 ft | 184 kts | 236° |
| 2026-05-04 01:47 | 35.26491 | -89.62971 | 4497 ft | 184 kts | 236° |
| 2026-05-04 01:47 | 35.25668 | -89.64177 | 4497 ft | 185 kts | 231° |
| 2026-05-04 01:47 | 35.24768 | -89.65309 | 4500 ft | 186 kts | 229° |
| 2026-05-04 01:48 | 35.23836 | -89.66412 | 4495 ft | 187 kts | 228° |
| 2026-05-04 01:48 | 35.22892 | -89.67503 | 4501 ft | 187 kts | 227° |
| 2026-05-04 01:48 | 35.22020 | -89.68666 | 4497 ft | 185 kts | 238° |
| 2026-05-04 01:48 | 35.21315 | -89.69984 | 4438 ft | 186 kts | 243° |
| 2026-05-04 01:49 | 35.20691 | -89.71387 | 4325 ft | 190 kts | 245° |
| 2026-05-04 01:49 | 35.20071 | -89.72831 | 4198 ft | 193 kts | 244° |
| 2026-05-04 01:49 | 35.19428 | -89.74287 | 4006 ft | 196 kts | 244° |
| 2026-05-04 01:49 | 35.18832 | -89.75781 | 3891 ft | 194 kts | 246° |
| 2026-05-04 01:50 | 35.18331 | -89.77250 | 3742 ft | 182 kts | 251° |
| 2026-05-04 01:50 | 35.17957 | -89.78692 | 3611 ft | 174 kts | 252° |
| 2026-05-04 01:50 | 35.17598 | -89.80065 | 3540 ft | 165 kts | 252° |
| 2026-05-04 01:50 | 35.17223 | -89.81375 | 3397 ft | 162 kts | 249° |
| 2026-05-04 01:51 | 35.16832 | -89.82648 | 3263 ft | 159 kts | 248° |
| 2026-05-04 01:51 | 35.16414 | -89.83921 | 2994 ft | 164 kts | 246° |
| 2026-05-04 01:51 | 35.15976 | -89.85210 | 2791 ft | 164 kts | 245° |
| 2026-05-04 01:51 | 35.15514 | -89.86467 | 2679 ft | 160 kts | 243° |
| 2026-05-04 01:52 | 35.15032 | -89.87674 | 2566 ft | 150 kts | 242° |
| 2026-05-04 01:52 | 35.14627 | -89.88718 | 2431 ft | 127 kts | 242° |
| 2026-05-04 01:52 | 35.14248 | -89.89663 | 2190 ft | 122 kts | 240° |
| 2026-05-04 01:52 | 35.13862 | -89.90590 | 1943 ft | 122 kts | 238° |
| 2026-05-04 01:53 | 35.13479 | -89.91518 | 1746 ft | 123 kts | 240° |
| 2026-05-04 01:53 | 35.13092 | -89.92436 | 1633 ft | 122 kts | 239° |
| 2026-05-04 01:53 | 35.12680 | -89.93354 | 1587 ft | 124 kts | 237° |
| 2026-05-04 01:53 | 35.12238 | -89.94253 | 1603 ft | 123 kts | 234° |
| 2026-05-04 01:54 | 35.11739 | -89.95115 | 1545 ft | 127 kts | 228° |
| 2026-05-04 01:54 | 35.11102 | -89.95863 | 1459 ft | 128 kts | 218° |
| 2026-05-04 01:54 | 35.10402 | -89.96550 | 1357 ft | 130 kts | 214° |
| 2026-05-04 01:54 | 35.09601 | -89.97098 | 1196 ft | 135 kts | 203° |
| 2026-05-04 01:55 | 35.08754 | -89.97311 | 1039 ft | 114 kts | 185° |
| 2026-05-04 01:55 | 35.07964 | -89.97334 | 886 ft | 113 kts | 180° |
| 2026-05-04 01:55 | 35.07201 | -89.97325 | 804 ft | 107 kts | 180° |
| 2026-05-04 01:55 | 35.06482 | -89.97314 | 672 ft | 99 kts | 180° |
| 2026-05-04 01:56 | 35.05809 | -89.97305 | 519 ft | 95 kts | 181° |
| 2026-05-04 01:56 | 35.05154 | -89.97296 | 410 ft | 94 kts | 181° |
| 2026-05-04 01:56 | 35.04556 | -89.97289 | 325 ft | 66 kts | 179° |
| 2026-05-04 01:56 | 35.04374 | -89.97284 | 324 ft | 0 kts | 178° |
| 2026-05-04 01:57 | 35.04355 | -89.97284 | 324 ft | 13 kts | 180° |
| 2026-05-04 01:58 | 35.04012 | -89.97278 | 325 ft | 92 kts | 179° |
| 2026-05-04 01:58 | 35.03240 | -89.97239 | 562 ft | 122 kts | 178° |
| 2026-05-04 01:58 | 35.02339 | -89.97209 | 879 ft | 135 kts | 180° |
| 2026-05-04 01:58 | 35.01382 | -89.97200 | 1217 ft | 139 kts | 181° |
| 2026-05-04 01:59 | 35.00638 | -89.96711 | 1618 ft | 131 kts | 114° |
| 2026-05-04 01:59 | 35.00601 | -89.95543 | 1669 ft | 143 kts | 90° |
| 2026-05-04 01:59 | 35.00718 | -89.94367 | 1587 ft | 139 kts | 78° |
| 2026-05-04 01:59 | 35.01329 | -89.93587 | 1486 ft | 132 kts | 11° |
| 2026-05-04 02:00 | 35.02258 | -89.93520 | 1412 ft | 132 kts | 356° |
| 2026-05-04 02:00 | 35.03163 | -89.93526 | 1401 ft | 128 kts | 354° |
| 2026-05-04 02:00 | 35.04052 | -89.93534 | 1365 ft | 128 kts | 355° |
| 2026-05-04 02:00 | 35.04950 | -89.93552 | 1303 ft | 131 kts | 355° |
| 2026-05-04 02:01 | 35.05800 | -89.93640 | 1325 ft | 114 kts | 348° |
| 2026-05-04 02:01 | 35.06584 | -89.93748 | 1254 ft | 114 kts | 348° |
| 2026-05-04 02:01 | 35.07358 | -89.93976 | 1253 ft | 115 kts | 322° |
| 2026-05-04 02:01 | 35.07786 | -89.94724 | 1278 ft | 107 kts | 282° |
| 2026-05-04 02:02 | 35.07924 | -89.95544 | 1228 ft | 95 kts | 269° |
| 2026-05-04 02:02 | 35.07926 | -89.96391 | 1014 ft | 102 kts | 263° |
| 2026-05-04 02:02 | 35.07558 | -89.97037 | 696 ft | 103 kts | 200° |
| 2026-05-04 02:02 | 35.06854 | -89.97253 | 657 ft | 105 kts | 191° |
| 2026-05-04 02:03 | 35.06130 | -89.97323 | 586 ft | 103 kts | 181° |
| 2026-05-04 02:03 | 35.05417 | -89.97300 | 464 ft | 98 kts | 179° |
| 2026-05-04 02:03 | 35.04760 | -89.97293 | 335 ft | 88 kts | 180° |
| 2026-05-04 02:03 | 35.04146 | -89.97281 | 348 ft | 109 kts | 179° |
| 2026-05-04 02:04 | 35.03302 | -89.97264 | 611 ft | 130 kts | 179° |
| 2026-05-04 02:04 | 35.02366 | -89.97254 | 885 ft | 134 kts | 180° |
| 2026-05-04 02:04 | 35.01454 | -89.97191 | 1162 ft | 127 kts | 159° |
| 2026-05-04 02:04 | 35.01184 | -89.96234 | 1342 ft | 138 kts | 88° |
| 2026-05-04 02:05 | 35.01277 | -89.95114 | 1303 ft | 129 kts | 88° |
| 2026-05-04 02:05 | 35.01481 | -89.94063 | 1234 ft | 129 kts | 61° |
| 2026-05-04 02:05 | 35.02202 | -89.93490 | 1190 ft | 129 kts | 4° |
| 2026-05-04 02:05 | 35.03099 | -89.93468 | 1165 ft | 130 kts | 357° |
| 2026-05-04 02:06 | 35.04024 | -89.93505 | 1168 ft | 137 kts | 354° |
| 2026-05-04 02:06 | 35.05004 | -89.93584 | 1146 ft | 145 kts | 354° |
| 2026-05-04 02:06 | 35.05998 | -89.93668 | 1232 ft | 141 kts | 354° |
| 2026-05-04 02:06 | 35.06922 | -89.93727 | 1295 ft | 123 kts | 350° |
| 2026-05-04 02:07 | 35.07573 | -89.94179 | 1090 ft | 103 kts | 290° |
| 2026-05-04 02:07 | 35.07625 | -89.95038 | 863 ft | 101 kts | 261° |
| 2026-05-04 02:07 | 35.07540 | -89.95889 | 858 ft | 102 kts | 257° |
| 2026-05-04 02:07 | 35.07416 | -89.96737 | 836 ft | 103 kts | 254° |
| 2026-05-04 02:08 | 35.06915 | -89.97269 | 724 ft | 101 kts | 192° |
| 2026-05-04 02:08 | 35.06214 | -89.97313 | 589 ft | 100 kts | 180° |
| 2026-05-04 02:08 | 35.05520 | -89.97306 | 483 ft | 100 kts | 181° |
| 2026-05-04 02:08 | 35.04820 | -89.97295 | 370 ft | 97 kts | 180° |
| 2026-05-04 02:09 | 35.04247 | -89.97289 | 324 ft | 67 kts | 178° |
| 2026-05-04 02:09 | 35.03881 | -89.97277 | 324 ft | 35 kts | 179° |
| 2026-05-04 02:09 | 35.03803 | -89.97378 | 324 ft | 17 kts | 268° |
| 2026-05-04 02:09 | 35.03802 | -89.97398 | 323 ft | 0 kts | 269° |
| 2026-05-04 02:10 | 35.03811 | -89.97431 | 323 ft | 11 kts | 312° |
| 2026-05-04 02:10 | 35.03918 | -89.97452 | 323 ft | 21 kts | 359° |
| 2026-05-04 02:10 | 35.04082 | -89.97456 | 323 ft | 26 kts | 359° |
| 2026-05-04 02:10 | 35.04285 | -89.97460 | 323 ft | 31 kts | 359° |
| 2026-05-04 02:11 | 35.04487 | -89.97465 | 322 ft | 29 kts | 359° |
| 2026-05-04 02:11 | 35.04653 | -89.97468 | 322 ft | 16 kts | 359° |
| 2026-05-04 02:11 | 35.04780 | -89.97471 | 322 ft | 18 kts | 0° |
| 2026-05-04 02:11 | 35.04870 | -89.97421 | 323 ft | 10 kts | 90° |
| 2026-05-04 02:12 | 35.04870 | -89.97403 | 323 ft | 0 kts | 89° |
| 2026-05-04 02:13 | 35.04870 | -89.97390 | 323 ft | 6 kts | 89° |
| 2026-05-04 02:13 | 35.04842 | -89.97300 | 325 ft | 23 kts | 159° |
| 2026-05-04 02:13 | 35.04357 | -89.97286 | 363 ft | 104 kts | 179° |
| 2026-05-04 02:13 | 35.03554 | -89.97264 | 563 ft | 123 kts | 179° |
| 2026-05-04 02:14 | 35.02666 | -89.97265 | 688 ft | 128 kts | 181° |
| 2026-05-04 02:14 | 35.01793 | -89.97244 | 920 ft | 119 kts | 165° |
| 2026-05-04 02:14 | 35.01311 | -89.96538 | 1138 ft | 121 kts | 102° |
| 2026-05-04 02:14 | 35.01606 | -89.95584 | 1192 ft | 134 kts | 31° |
| 2026-05-04 02:15 | 35.02515 | -89.95488 | 1226 ft | 135 kts | 354° |
| 2026-05-04 02:15 | 35.03473 | -89.95526 | 1331 ft | 137 kts | 355° |
| 2026-05-04 02:15 | 35.04424 | -89.95534 | 1451 ft | 137 kts | 357° |
| 2026-05-04 02:15 | 35.05384 | -89.95550 | 1487 ft | 137 kts | 354° |
| 2026-05-04 02:16 | 35.06311 | -89.95582 | 1430 ft | 131 kts | 355° |
| 2026-05-04 02:16 | 35.07211 | -89.95665 | 1335 ft | 127 kts | 334° |
| 2026-05-04 02:16 | 35.07720 | -89.96395 | 1198 ft | 113 kts | 279° |
| 2026-05-04 02:16 | 35.07819 | -89.97345 | 1004 ft | 113 kts | 270° |
| 2026-05-04 02:17 | 35.07706 | -89.98257 | 801 ft | 111 kts | 232° |
| 2026-05-04 02:17 | 35.07058 | -89.98796 | 675 ft | 115 kts | 192° |
| 2026-05-04 02:17 | 35.06276 | -89.98757 | 555 ft | 113 kts | 181° |
| 2026-05-04 02:17 | 35.05580 | -89.98754 | 459 ft | 89 kts | 180° |
| 2026-05-04 02:18 | 35.04973 | -89.98737 | 410 ft | 86 kts | 179° |
| 2026-05-04 02:18 | 35.04361 | -89.98728 | 395 ft | 90 kts | 180° |
| 2026-05-04 02:18 | 35.03635 | -89.98708 | 525 ft | 116 kts | 180° |
| 2026-05-04 02:18 | 35.02787 | -89.98677 | 748 ft | 123 kts | 178° |